createdAt,value
2023-04-13T02:17:17.820Z,89.31
2023-04-13T02:19:47.517Z,88.84
2023-04-13T02:22:19.985Z,88.87
2023-04-13T02:24:51.293Z,89.27
2023-04-13T02:27:19.639Z,89.54
2023-04-13T02:29:52.631Z,89.75
2023-04-13T02:32:22.570Z,89.70
2023-04-13T02:34:51.474Z,89.79
2023-04-13T02:37:20.723Z,89.88
2023-04-13T02:39:51.929Z,89.78
2023-04-13T02:42:20.533Z,89.97
2023-04-13T02:44:50.479Z,90.02
2023-04-13T02:47:28.768Z,89.93
2023-04-13T02:50:03.398Z,89.95
2023-04-13T02:52:39.896Z,90.06
2023-04-13T02:55:09.485Z,90.28
2023-04-13T02:57:51.876Z,90.34
2023-04-13T03:00:21.986Z,90.09
2023-04-13T03:03:17.126Z,90.22
2023-04-13T03:05:50.678Z,90.41
2023-04-13T03:08:22.677Z,90.37
2023-04-13T03:11:02.318Z,90.46
2023-04-13T03:13:30.913Z,90.58
2023-04-13T03:16:00.752Z,90.38
2023-04-13T03:18:29.267Z,90.68
2023-04-13T03:20:57.972Z,90.63
2023-04-13T03:23:30.774Z,90.71
2023-04-13T03:25:59.184Z,90.79
2023-04-13T03:28:30.794Z,90.83
2023-04-13T03:30:59.570Z,91.07
2023-04-13T03:33:29.062Z,91.23
2023-04-13T03:35:57.755Z,91.24
2023-04-13T03:38:32.788Z,91.25
2023-04-13T03:41:03.858Z,91.11
2023-04-13T03:43:33.575Z,91.17
2023-04-13T03:46:09.073Z,91.26
2023-04-13T03:48:41.781Z,91.06
2023-04-13T03:51:11.723Z,90.90
2023-04-13T03:53:49.898Z,90.93
2023-04-13T03:56:21.442Z,90.79
2023-04-13T03:58:51.497Z,90.73
2023-04-13T04:01:24.153Z,90.62
2023-04-13T04:03:58.496Z,90.52
2023-04-13T04:06:29.073Z,90.36
2023-04-13T04:09:13.119Z,90.42
2023-04-13T04:11:45.172Z,90.36
2023-04-13T04:14:13.962Z,90.27
2023-04-13T04:16:51.765Z,90.09
2023-04-13T04:19:20.704Z,89.88
2023-04-13T04:21:49.865Z,90.03
2023-04-13T04:24:27.641Z,89.93
2023-04-13T04:27:00.461Z,90.03
2023-04-13T04:29:34.647Z,89.78
2023-04-13T04:32:27.913Z,89.62
2023-04-13T04:34:56.681Z,89.44
2023-04-13T04:37:26.263Z,89.58
2023-04-13T04:40:02.071Z,89.68
2023-04-13T04:42:31.009Z,90.00
2023-04-13T04:45:05.582Z,90.21
2023-04-13T04:47:42.201Z,90.26
2023-04-13T04:50:17.949Z,90.27
2023-04-13T04:52:58.788Z,90.02
2023-04-13T04:55:37.461Z,89.81
2023-04-13T04:58:13.246Z,89.77
2023-04-13T05:03:35.885Z,89.73
2023-04-13T05:06:27.726Z,89.28
2023-04-13T05:09:04.378Z,89.41
2023-04-13T05:12:03.249Z,89.22
2023-04-13T05:14:49.437Z,88.92
2023-04-13T05:17:49.850Z,88.95
2023-04-13T05:20:21.405Z,88.55
2023-04-13T05:23:05.454Z,88.40
2023-04-13T05:26:01.745Z,88.16
2023-04-13T05:28:46.621Z,87.93
2023-04-13T05:31:50.828Z,87.59
2023-04-13T05:34:24.289Z,87.09
2023-04-13T05:37:09.105Z,86.79
2023-04-13T05:39:45.397Z,86.50
2023-04-13T05:42:27.360Z,86.35
2023-04-13T05:44:57.230Z,86.04
2023-04-13T05:47:59.181Z,85.51
2023-04-13T05:51:05.166Z,84.96
2023-04-13T05:53:39.645Z,84.05
2023-04-13T05:56:16.742Z,83.42
2023-04-13T05:58:55.052Z,83.00
2023-04-13T06:01:31.799Z,83.10
2023-04-13T06:04:09.186Z,82.97
2023-04-13T06:06:50.071Z,82.73
2023-04-13T06:09:27.990Z,82.33
2023-04-13T06:12:09.853Z,82.09
2023-04-13T06:14:43.691Z,81.89
2023-04-13T06:17:22.544Z,82.15
2023-04-13T06:20:01.593Z,82.18
2023-04-13T06:22:33.564Z,82.34
2023-04-13T06:25:08.408Z,82.45
2023-04-13T06:27:45.261Z,82.49
2023-04-13T06:30:18.811Z,82.23
2023-04-13T06:32:58.357Z,81.99
2023-04-13T06:35:33.387Z,81.89
2023-04-13T06:38:10.071Z,81.84
2023-04-13T06:41:14.043Z,82.00
2023-04-13T06:44:01.142Z,82.01
2023-04-13T06:46:44.798Z,81.92
2023-04-13T06:49:43.971Z,82.12
2023-04-13T06:52:48.773Z,82.14
2023-04-13T06:55:32.957Z,81.91
2023-04-13T06:58:19.357Z,81.60
2023-04-13T07:01:43.532Z,81.55
2023-04-13T07:04:34.589Z,81.54
2023-04-13T07:07:13.380Z,81.46
2023-04-13T07:10:00.623Z,81.25
2023-04-13T07:12:45.512Z,80.74
2023-04-13T07:18:12.545Z,80.55
2023-04-13T07:20:57.160Z,80.09
2023-04-13T07:23:39.617Z,79.21
2023-04-13T07:30:09.264Z,78.71
2023-04-13T07:33:47.359Z,77.87
2023-04-13T07:40:47.523Z,76.78
2023-04-13T07:43:53.898Z,76.30
2023-04-13T07:47:10.961Z,75.56
2023-04-13T07:50:25.422Z,74.73
2023-04-13T07:55:51.104Z,73.79
2023-04-13T08:02:30.552Z,72.57
2023-04-13T08:05:31.327Z,72.52
2023-04-13T08:08:02.926Z,72.43
2023-04-13T08:10:36.966Z,72.67
2023-04-13T08:13:10.323Z,72.79
2023-04-13T08:15:49.866Z,72.72
2023-04-13T08:18:24.501Z,72.55
2023-04-13T08:21:00.878Z,72.05
2023-04-13T08:23:33.251Z,71.79
2023-04-13T08:26:44.621Z,71.38
2023-04-13T08:29:44.105Z,71.64
2023-04-13T08:32:50.866Z,71.64
2023-04-13T08:35:28.202Z,71.43
2023-04-13T08:38:07.400Z,71.49
2023-04-13T08:40:50.324Z,71.09
2023-04-13T08:43:55.796Z,71.35
2023-04-13T08:46:56.972Z,71.39
2023-04-13T08:49:40.791Z,71.40
2023-04-13T08:52:36.313Z,70.66
2023-04-13T08:55:13.070Z,70.80
2023-04-13T08:58:11.344Z,70.72
2023-04-13T09:01:20.838Z,70.43
2023-04-13T09:04:14.798Z,70.50
2023-04-13T09:06:54.299Z,69.85
2023-04-13T09:09:29.244Z,69.07
2023-04-13T09:12:21.221Z,68.47
2023-04-13T09:15:54.628Z,68.14
2023-04-13T09:23:06.583Z,66.62
2023-04-13T09:26:12.368Z,66.71
2023-04-13T09:30:16.202Z,66.86
2023-04-13T09:33:41.295Z,66.99
2023-04-13T09:36:53.960Z,66.61
2023-04-13T09:39:52.133Z,66.13
2023-04-13T09:56:02.798Z,65.41
2023-04-13T09:59:04.674Z,65.40
2023-04-13T10:02:30.030Z,65.21
2023-04-13T10:05:14.203Z,65.09
2023-04-13T10:08:36.737Z,65.15
2023-04-13T10:11:54.875Z,65.42
2023-04-13T10:14:55.074Z,65.53
2023-04-13T10:17:51.236Z,65.38
2023-04-13T10:20:36.441Z,65.15
2023-04-13T10:23:06.400Z,65.25
2023-04-13T10:25:58.994Z,65.50
2023-04-13T10:28:42.967Z,65.79
2023-04-13T10:31:38.560Z,66.16
2023-04-13T10:34:28.893Z,66.52
2023-04-13T10:37:09.648Z,66.82
2023-04-13T10:39:47.883Z,67.28
2023-04-13T10:42:53.201Z,67.69
2023-04-13T10:45:52.984Z,68.13
2023-04-13T10:49:12.966Z,68.41
2023-04-13T10:52:25.301Z,68.80
2023-04-13T10:55:00.518Z,68.60
2023-04-13T10:57:46.775Z,68.47
2023-04-13T11:00:42.358Z,68.55
2023-04-13T11:03:53.186Z,68.47
2023-04-13T11:06:44.137Z,68.30
2023-04-13T11:13:52.210Z,68.02
2023-04-13T11:16:50.115Z,68.19
2023-04-13T11:19:55.047Z,68.48
2023-04-13T11:22:47.680Z,68.63
2023-04-13T11:25:22.409Z,68.49
2023-04-13T11:28:15.414Z,68.19
2023-04-13T11:31:14.160Z,68.01
2023-04-13T11:39:53.038Z,67.40
2023-04-13T11:42:22.650Z,67.73
2023-04-13T11:44:51.387Z,67.95
2023-04-13T11:47:19.987Z,68.11
2023-04-13T11:49:51.880Z,68.28
2023-04-13T11:52:20.185Z,68.01
2023-04-13T11:54:49.846Z,67.53
2023-04-13T11:57:19.423Z,67.20
2023-04-13T11:59:52.870Z,67.59
2023-04-13T12:02:33.733Z,67.93
2023-04-13T12:05:03.049Z,68.64
2023-04-13T12:07:33.564Z,68.78
2023-04-13T12:10:08.084Z,68.80
2023-04-13T12:15:25.059Z,69.16
2023-04-13T12:18:14.314Z,69.47
2023-04-13T12:20:48.819Z,69.62
2023-04-13T12:23:22.841Z,69.92
2023-04-13T12:26:32.214Z,70.52
2023-04-13T12:29:24.801Z,71.28
2023-04-13T12:31:53.401Z,71.76
2023-04-13T12:34:27.034Z,71.87
2023-04-13T12:36:58.518Z,72.03
2023-04-13T12:39:28.139Z,72.18
2023-04-13T12:41:57.322Z,72.25
2023-04-13T12:44:34.590Z,72.43
2023-04-13T12:47:04.246Z,72.91
2023-04-13T12:49:34.747Z,73.48
2023-04-13T12:52:03.075Z,73.87
2023-04-13T12:54:33.620Z,74.16
2023-04-13T12:57:03.786Z,74.02
2023-04-13T12:59:33.770Z,73.71
2023-04-13T13:02:02.131Z,73.22
2023-04-13T13:04:35.253Z,73.02
2023-04-13T13:07:04.529Z,73.03
2023-04-13T13:09:33.314Z,72.83
2023-04-13T13:12:09.808Z,72.88
2023-04-13T13:14:43.527Z,73.22
2023-04-13T13:17:12.283Z,73.31
2023-04-13T13:19:40.853Z,73.41
2023-04-13T13:22:09.316Z,73.63
2023-04-13T13:24:39.813Z,73.72
2023-04-13T13:29:43.830Z,74.30
2023-04-13T13:32:14.374Z,74.41
2023-04-13T13:34:45.498Z,74.78
2023-04-13T13:37:14.174Z,74.91
2023-04-13T13:39:47.068Z,75.02
2023-04-13T13:42:16.518Z,74.95
2023-04-13T13:44:44.968Z,75.13
2023-04-13T13:47:20.486Z,75.45
2023-04-13T13:49:51.912Z,75.66
2023-04-13T13:52:30.741Z,75.62
2023-04-13T13:54:59.584Z,75.55
2023-04-13T13:57:30.146Z,75.50
2023-04-13T13:59:59.378Z,75.60
2023-04-13T14:02:27.805Z,75.17
2023-04-13T14:04:56.089Z,75.20
2023-04-13T14:07:30.146Z,75.24
2023-04-13T14:10:05.132Z,75.16
2023-04-13T14:12:55.954Z,75.14
2023-04-13T14:15:29.402Z,75.14
2023-04-13T14:18:10.374Z,75.16
2023-04-13T14:20:51.740Z,75.13
2023-04-13T14:23:29.305Z,75.30
2023-04-13T14:25:59.347Z,75.24
2023-04-13T14:28:28.157Z,75.13
2023-04-13T14:31:01.691Z,74.89
2023-04-13T14:33:32.815Z,74.95
2023-04-13T14:36:01.819Z,74.62
2023-04-13T14:38:30.689Z,74.47
2023-04-13T14:41:01.335Z,74.38
2023-04-13T14:43:30.500Z,74.55
2023-04-13T14:46:18.781Z,74.53
2023-04-13T14:48:50.161Z,74.45
2023-04-13T14:51:19.198Z,74.26
2023-04-13T14:53:48.061Z,74.48
2023-04-13T14:56:16.698Z,74.37
2023-04-13T14:58:45.268Z,74.59
2023-04-13T15:01:18.235Z,74.48
2023-04-13T15:03:47.440Z,74.15
2023-04-13T15:06:17.344Z,73.80
2023-04-13T15:08:46.461Z,74.13
2023-04-13T15:11:19.150Z,74.02
2023-04-13T15:13:49.872Z,74.18
2023-04-13T15:16:18.208Z,74.27
2023-04-13T15:18:46.384Z,74.12
2023-04-13T15:21:14.403Z,74.05
2023-04-13T15:23:42.867Z,74.20
2023-04-13T15:26:18.349Z,74.15
2023-04-13T15:28:50.823Z,74.23
2023-04-13T15:31:21.292Z,74.62
2023-04-13T15:33:49.506Z,74.51
2023-04-13T15:36:19.172Z,74.71
2023-04-13T15:38:47.644Z,74.67
2023-04-13T15:41:16.306Z,74.72
2023-04-13T15:43:45.960Z,74.95
2023-04-13T15:46:14.080Z,74.91
2023-04-13T15:48:42.708Z,74.92
2023-04-13T15:51:12.673Z,75.30
2023-04-13T15:53:42.222Z,75.50
2023-04-13T15:56:10.578Z,75.79
2023-04-13T15:58:38.784Z,76.08
2023-04-13T16:01:10.703Z,76.18
2023-04-13T16:03:40.608Z,76.30
2023-04-13T16:06:08.892Z,76.36
2023-04-13T16:08:39.045Z,76.57
2023-04-13T16:11:07.767Z,76.79
2023-04-13T16:13:48.060Z,77.02
2023-04-13T16:16:23.926Z,77.33
2023-04-13T16:19:00.666Z,77.54
2023-04-13T16:21:30.502Z,77.79
2023-04-13T16:23:58.767Z,78.13
2023-04-13T16:26:29.683Z,78.29
2023-04-13T16:28:58.265Z,78.69
2023-04-13T16:31:27.320Z,78.85
2023-04-13T16:33:57.111Z,79.15
2023-04-13T16:36:26.066Z,79.38
2023-04-13T16:38:54.198Z,79.74
2023-04-13T16:41:22.424Z,79.86
2023-04-13T16:43:51.258Z,80.02
2023-04-13T16:46:22.585Z,80.25
2023-04-13T16:48:51.998Z,80.28
2023-04-13T16:51:20.537Z,80.61
2023-04-13T16:53:49.163Z,80.50
2023-04-13T16:56:19.762Z,80.59
2023-04-13T16:58:49.199Z,80.67
2023-04-13T17:01:17.268Z,80.69
2023-04-13T17:03:45.720Z,80.80
2023-04-13T17:06:14.463Z,80.90
2023-04-13T17:08:45.078Z,80.97
2023-04-13T17:11:13.106Z,81.25
2023-04-13T17:13:42.481Z,81.27
2023-04-13T17:16:14.612Z,81.62
2023-04-13T17:18:44.120Z,81.67
2023-04-13T17:21:12.346Z,81.84
2023-04-13T17:23:41.176Z,82.16
2023-04-13T17:26:15.268Z,82.35
2023-04-13T17:28:43.828Z,82.40
2023-04-13T17:31:11.717Z,82.60
2023-04-13T17:33:41.294Z,82.65
2023-04-13T17:36:10.745Z,82.65
2023-04-13T17:38:38.975Z,82.85
2023-04-13T17:41:12.726Z,82.81
2023-04-13T17:43:40.814Z,82.97
2023-04-13T17:46:09.367Z,83.33
2023-04-13T17:48:37.570Z,83.63
2023-04-13T17:51:11.314Z,83.92
2023-04-13T17:53:39.765Z,84.47
2023-04-13T17:56:15.445Z,84.94
2023-04-13T17:58:43.554Z,85.53
2023-04-13T18:01:11.614Z,85.98
2023-04-13T18:03:47.673Z,86.51
2023-04-13T18:06:15.971Z,87.15
2023-04-13T18:08:44.213Z,87.46
2023-04-13T18:11:12.501Z,87.84
2023-04-13T18:13:43.805Z,88.35
2023-04-13T18:16:14.448Z,88.71
2023-04-13T18:18:43.094Z,88.87
2023-04-13T18:21:19.644Z,88.99
2023-04-13T18:23:48.064Z,88.98
2023-04-13T18:26:16.494Z,88.95
2023-04-13T18:28:44.981Z,89.27
2023-04-13T18:31:13.633Z,89.16
2023-04-13T18:33:42.255Z,89.20
2023-04-13T18:36:10.111Z,89.46
2023-04-13T18:38:40.974Z,89.52
2023-04-13T18:41:09.686Z,89.67
2023-04-13T18:43:37.982Z,89.41
2023-04-13T18:46:07.053Z,89.14
2023-04-13T18:48:36.095Z,88.91
2023-04-13T18:51:09.969Z,88.82
2023-04-13T18:53:39.668Z,88.68
2023-04-13T18:56:07.601Z,88.49
2023-04-13T18:58:36.023Z,88.00
2023-04-13T19:01:04.299Z,87.78
2023-04-13T19:03:33.206Z,87.87
2023-04-13T19:06:03.393Z,87.91
2023-04-13T19:08:33.825Z,87.89
2023-04-13T19:11:01.907Z,87.79
2023-04-13T19:13:30.356Z,87.86
2023-04-13T19:16:06.849Z,87.80
2023-04-13T19:18:36.747Z,87.85
2023-04-13T19:21:06.609Z,87.89
2023-04-13T19:23:40.282Z,87.57
2023-04-13T19:26:10.894Z,87.14
2023-04-13T19:28:39.428Z,86.92
2023-04-13T19:31:07.434Z,86.64
2023-04-13T19:33:42.849Z,86.53
2023-04-13T19:36:11.523Z,86.32
2023-04-13T19:38:39.546Z,86.24
2023-04-13T19:41:08.446Z,86.01
2023-04-13T19:43:37.437Z,86.02
2023-04-13T19:46:05.708Z,86.00
2023-04-13T19:48:34.664Z,85.85
2023-04-13T19:51:02.885Z,85.87
2023-04-13T19:53:32.550Z,85.77
2023-04-13T19:56:01.860Z,86.01
2023-04-13T19:58:30.393Z,85.95
2023-04-13T20:01:06.291Z,85.77
2023-04-13T20:03:36.985Z,85.71
2023-04-13T20:06:06.043Z,85.59
2023-04-13T20:08:35.714Z,85.58
2023-04-13T20:11:08.338Z,85.52
2023-04-13T20:13:38.259Z,85.54
2023-04-13T20:16:06.564Z,85.76
2023-04-13T20:18:34.587Z,85.74
2023-04-13T20:21:03.278Z,85.67
2023-04-13T20:23:33.202Z,85.80
2023-04-13T20:26:04.670Z,85.89
2023-04-13T20:28:36.268Z,86.12
2023-04-13T20:31:04.472Z,86.35
2023-04-13T20:33:34.581Z,86.31
2023-04-13T20:36:03.250Z,86.23
2023-04-13T20:38:31.257Z,86.54
2023-04-13T20:40:59.435Z,86.60
2023-04-13T20:43:27.906Z,86.78
2023-04-13T20:45:57.392Z,86.76
2023-04-13T20:51:08.013Z,86.81
2023-04-13T20:53:38.293Z,86.87
2023-04-13T20:56:09.274Z,87.07
2023-04-13T20:58:38.164Z,86.88
2023-04-13T21:01:06.895Z,86.89
2023-04-13T21:03:38.653Z,87.08
2023-04-13T21:06:07.752Z,86.86
2023-04-13T21:08:38.886Z,87.09
2023-04-13T21:11:10.750Z,87.13
2023-04-13T21:13:38.771Z,87.36
2023-04-13T21:16:08.567Z,87.53
2023-04-13T21:18:41.979Z,87.14
2023-04-13T21:21:09.912Z,87.06
2023-04-13T21:23:38.644Z,87.28
2023-04-13T21:26:13.417Z,87.20
2023-04-13T21:28:42.117Z,87.39
2023-04-13T21:31:10.094Z,87.62
2023-04-13T21:33:39.887Z,87.54
2023-04-13T21:38:44.158Z,87.10
2023-04-13T21:41:18.530Z,87.14
2023-04-13T21:43:46.508Z,87.07
2023-04-13T21:46:15.387Z,87.14
2023-04-13T21:48:43.509Z,86.99
2023-04-13T21:51:11.455Z,87.03
2023-04-13T21:53:40.536Z,87.12
2023-04-13T21:56:08.647Z,87.18
2023-04-13T21:58:45.416Z,86.89
2023-04-13T22:01:13.780Z,87.00
2023-04-13T22:03:45.991Z,86.89
2023-04-13T22:06:14.516Z,87.03
2023-04-13T22:08:48.700Z,87.05
2023-04-13T22:11:16.660Z,87.07
2023-04-13T22:13:44.659Z,86.78
2023-04-13T22:16:14.635Z,86.95
2023-04-13T22:18:42.864Z,87.07
2023-04-13T22:21:11.483Z,86.95
2023-04-13T22:23:43.594Z,86.95
2023-04-13T22:26:11.747Z,86.85
2023-04-13T22:28:39.663Z,86.51
2023-04-13T22:31:08.619Z,86.55
2023-04-13T22:33:40.438Z,86.53
2023-04-13T22:36:19.994Z,86.52
2023-04-13T22:38:48.593Z,86.24
2023-04-13T22:41:16.870Z,86.18
2023-04-13T22:43:44.801Z,86.08
2023-04-13T22:46:14.124Z,86.24
2023-04-13T22:48:42.742Z,86.30
2023-04-13T22:51:11.029Z,86.46
2023-04-13T22:53:39.241Z,86.48
2023-04-13T22:56:07.404Z,86.94
2023-04-13T22:58:35.432Z,87.63
2023-04-13T23:01:03.866Z,88.22
2023-04-13T23:03:33.609Z,88.51
2023-04-13T23:06:04.694Z,89.11
2023-04-13T23:08:33.410Z,89.64
2023-04-13T23:11:09.508Z,90.05
2023-04-13T23:13:37.525Z,90.33
2023-04-13T23:16:08.181Z,90.73
2023-04-13T23:18:36.588Z,91.05
2023-04-13T23:21:12.094Z,91.39
2023-04-13T23:23:40.137Z,91.55
2023-04-13T23:26:07.999Z,91.47
2023-04-13T23:28:36.113Z,91.41
2023-04-13T23:31:06.958Z,91.14
2023-04-13T23:33:36.713Z,91.12
2023-04-13T23:36:05.290Z,90.75
2023-04-13T23:38:36.390Z,90.19
2023-04-13T23:41:05.903Z,90.23
2023-04-13T23:43:34.218Z,90.02
2023-04-13T23:46:02.999Z,89.59
2023-04-13T23:48:31.946Z,89.56
2023-04-13T23:50:59.855Z,89.32
2023-04-13T23:53:29.069Z,89.29
2023-04-13T23:55:57.002Z,89.29
2023-04-13T23:58:25.406Z,89.01
